createdAt,value
2023-10-09T00:00:33.732Z,5.99
2023-10-09T00:03:02.399Z,6.56
2023-10-09T00:05:47.076Z,6.80
2023-10-09T00:08:20.489Z,6.26
2023-10-09T00:10:54.383Z,6.45
2023-10-09T00:13:30.714Z,6.43
2023-10-09T00:16:09.363Z,6.08
2023-10-09T00:18:37.381Z,6.17
2023-10-09T00:21:13.890Z,5.92
2023-10-09T00:23:42.255Z,5.71
2023-10-09T00:26:12.192Z,6.54
2023-10-09T00:28:52.390Z,6.15
2023-10-09T00:31:31.189Z,6.46
2023-10-09T00:34:04.753Z,5.94
2023-10-09T00:36:34.244Z,6.12
2023-10-09T00:39:13.268Z,6.40
2023-10-09T00:41:42.801Z,6.66
2023-10-09T00:44:12.286Z,6.40
2023-10-09T00:46:43.647Z,6.34
2023-10-09T00:49:12.365Z,5.80
2023-10-09T00:51:57.653Z,5.94
2023-10-09T00:54:29.702Z,6.16
2023-10-09T00:57:07.731Z,6.15
2023-10-09T00:59:39.496Z,6.20
2023-10-09T01:02:08.078Z,6.21
2023-10-09T01:04:42.093Z,6.46
2023-10-09T01:07:16.906Z,6.31
2023-10-09T01:09:46.074Z,5.79
2023-10-09T01:12:19.166Z,6.76
2023-10-09T01:14:53.945Z,6.28
2023-10-09T01:17:36.764Z,6.33
2023-10-09T01:20:15.300Z,6.46
2023-10-09T01:22:45.338Z,6.24
2023-10-09T01:25:14.694Z,6.46
2023-10-09T01:27:45.245Z,6.29
2023-10-09T01:30:15.178Z,5.96
2023-10-09T01:32:44.772Z,6.29
2023-10-09T01:35:21.699Z,6.55
2023-10-09T01:37:52.142Z,6.04
2023-10-09T01:40:36.903Z,6.34
2023-10-09T01:43:05.872Z,6.55
2023-10-09T01:45:43.336Z,6.32
2023-10-09T01:48:13.472Z,5.93
2023-10-09T01:50:43.593Z,6.15
2023-10-09T01:53:18.240Z,6.58
2023-10-09T01:55:47.633Z,5.80
2023-10-09T01:58:25.566Z,5.82
2023-10-09T02:00:56.348Z,5.66
2023-10-09T02:03:30.495Z,5.84
2023-10-09T02:06:01.079Z,5.98
2023-10-09T02:08:36.682Z,5.78
2023-10-09T02:11:08.330Z,5.90
2023-10-09T02:13:36.753Z,6.08
2023-10-09T02:16:16.009Z,5.93
2023-10-09T02:18:55.093Z,6.05
2023-10-09T02:21:33.843Z,5.80
2023-10-09T02:24:06.743Z,5.61
2023-10-09T02:27:02.190Z,5.62
2023-10-09T02:29:30.335Z,6.00
2023-10-09T02:32:02.381Z,5.58
2023-10-09T02:34:30.920Z,5.64
2023-10-09T02:37:05.440Z,5.27
2023-10-09T02:39:38.199Z,5.71
2023-10-09T02:42:20.504Z,5.93
2023-10-09T02:44:50.848Z,5.97
2023-10-09T02:47:26.040Z,5.86
2023-10-09T02:50:01.733Z,5.53
2023-10-09T02:52:34.782Z,6.21
2023-10-09T02:55:07.067Z,6.16
2023-10-09T02:57:38.497Z,5.62
2023-10-09T03:00:10.750Z,5.08
2023-10-09T03:02:41.338Z,5.80
2023-10-09T03:05:13.088Z,5.71
2023-10-09T03:07:41.581Z,5.16
2023-10-09T03:10:10.946Z,6.16
2023-10-09T03:12:40.790Z,5.69
2023-10-09T03:15:10.596Z,5.16
2023-10-09T03:17:39.619Z,5.79
2023-10-09T03:20:13.497Z,5.55
2023-10-09T03:22:42.510Z,5.40
2023-10-09T03:25:12.768Z,5.64
2023-10-09T03:27:46.062Z,5.98
2023-10-09T03:30:23.921Z,6.22
2023-10-09T03:32:53.910Z,5.64
2023-10-09T03:35:29.024Z,5.82
2023-10-09T03:38:01.884Z,5.12
2023-10-09T03:40:33.170Z,5.80
2023-10-09T03:43:02.637Z,5.32
2023-10-09T03:45:32.586Z,5.35
2023-10-09T03:48:06.227Z,5.18
2023-10-09T03:50:38.534Z,5.70
2023-10-09T03:53:09.020Z,5.55
2023-10-09T03:55:40.670Z,6.10
2023-10-09T03:58:12.805Z,6.33
2023-10-09T04:00:46.596Z,5.63
2023-10-09T04:03:16.282Z,5.63
2023-10-09T04:05:46.016Z,5.44
2023-10-09T04:08:21.185Z,5.09
2023-10-09T04:10:56.751Z,5.43
2023-10-09T04:13:34.587Z,5.78
2023-10-09T04:16:11.857Z,6.13
2023-10-09T04:18:41.186Z,5.69
2023-10-09T04:21:20.289Z,6.23
2023-10-09T04:24:06.884Z,5.76
2023-10-09T04:26:36.050Z,5.30
2023-10-09T04:29:06.526Z,6.13
2023-10-09T04:31:38.327Z,6.28
2023-10-09T04:34:29.566Z,5.61
2023-10-09T04:37:18.214Z,5.68
2023-10-09T04:39:48.877Z,5.70
2023-10-09T04:42:21.299Z,6.46
2023-10-09T04:45:16.430Z,6.08
2023-10-09T04:48:02.054Z,5.50
2023-10-09T04:50:46.853Z,6.13
2023-10-09T04:53:26.217Z,5.90
2023-10-09T04:55:58.628Z,6.26
2023-10-09T04:58:33.208Z,6.51
2023-10-09T05:01:12.891Z,5.94
2023-10-09T05:03:46.818Z,6.38
2023-10-09T05:06:33.404Z,6.33
2023-10-09T05:09:09.902Z,6.67
2023-10-09T05:11:51.859Z,5.98
2023-10-09T05:14:27.870Z,6.40
2023-10-09T05:16:56.531Z,6.45
2023-10-09T05:19:34.678Z,6.45
2023-10-09T05:22:08.785Z,24.10
2023-10-09T05:24:46.794Z,66.09
2023-10-09T05:27:18.841Z,62.56
2023-10-09T05:30:00.408Z,44.56
2023-10-09T05:32:36.327Z,13.43
2023-10-09T05:35:16.907Z,13.81
2023-10-09T05:37:44.485Z,23.70
2023-10-09T05:40:27.997Z,11.05
2023-10-09T05:43:06.869Z,7.94
2023-10-09T05:45:52.568Z,7.46
2023-10-09T05:48:35.988Z,8.12
2023-10-09T05:51:20.590Z,7.53
2023-10-09T05:54:13.072Z,7.54
2023-10-09T05:56:58.721Z,8.05
2023-10-09T05:59:44.123Z,8.17
2023-10-09T06:02:55.657Z,7.19
2023-10-09T06:05:52.410Z,8.97
2023-10-09T06:08:25.933Z,18.55
2023-10-09T06:11:07.076Z,12.35
2023-10-09T06:13:46.872Z,9.17
2023-10-09T06:16:36.444Z,7.70
2023-10-09T06:19:13.593Z,7.09
2023-10-09T06:22:02.025Z,6.84
2023-10-09T06:24:42.819Z,6.03
2023-10-09T06:27:17.055Z,6.20
2023-10-09T06:29:59.780Z,5.78
2023-10-09T06:32:38.413Z,6.19
2023-10-09T06:35:19.604Z,6.12
2023-10-09T06:38:15.331Z,6.15
2023-10-09T06:41:18.272Z,5.82
2023-10-09T06:43:48.979Z,5.77
2023-10-09T06:46:35.528Z,5.69
2023-10-09T06:49:23.585Z,5.67
2023-10-09T06:51:56.778Z,8.96
2023-10-09T06:54:28.213Z,9.87
2023-10-09T06:57:13.669Z,6.45
2023-10-09T07:00:05.684Z,5.94
2023-10-09T07:02:47.118Z,5.46
2023-10-09T07:05:18.740Z,5.20
2023-10-09T07:07:56.422Z,5.60
2023-10-09T07:10:33.773Z,5.59
2023-10-09T07:13:03.444Z,5.42
2023-10-09T07:15:50.087Z,5.39
2023-10-09T07:18:24.249Z,4.78
2023-10-09T07:21:02.685Z,5.20
2023-10-09T07:23:34.063Z,5.86
2023-10-09T07:26:24.693Z,6.16
2023-10-09T07:29:02.190Z,7.13
2023-10-09T07:31:40.764Z,6.54
2023-10-09T07:37:05.835Z,6.21
2023-10-09T07:39:37.249Z,5.76
2023-10-09T07:42:21.353Z,6.54
2023-10-09T07:44:55.418Z,6.94
2023-10-09T07:47:44.187Z,5.50
2023-10-09T07:50:13.217Z,5.14
2023-10-09T07:52:46.171Z,5.36
2023-10-09T07:55:27.401Z,5.41
2023-10-09T07:57:55.707Z,6.93
2023-10-09T08:00:59.455Z,6.23
2023-10-09T08:03:33.835Z,5.96
2023-10-09T08:06:29.151Z,4.44
2023-10-09T08:09:20.139Z,4.53
2023-10-09T08:12:09.238Z,5.13
2023-10-09T08:14:49.693Z,4.93
2023-10-09T08:17:17.338Z,5.16
2023-10-09T08:19:55.657Z,5.12
2023-10-09T08:22:38.763Z,5.34
2023-10-09T08:25:09.278Z,6.18
2023-10-09T08:27:55.741Z,5.22
2023-10-09T08:30:42.128Z,5.04
2023-10-09T08:36:06.666Z,5.25
2023-10-09T08:38:37.632Z,5.04
2023-10-09T08:41:22.267Z,5.68
2023-10-09T08:43:55.058Z,8.41
2023-10-09T08:46:27.935Z,5.10
2023-10-09T08:48:57.496Z,4.52
2023-10-09T08:51:27.043Z,5.57
2023-10-09T08:53:55.886Z,5.37
2023-10-09T08:56:25.402Z,5.65
2023-10-09T08:58:55.373Z,5.38
2023-10-09T09:01:26.104Z,4.95
2023-10-09T09:03:57.209Z,4.52
2023-10-09T09:06:25.516Z,4.19
2023-10-09T09:08:56.457Z,3.10
2023-10-09T09:11:26.292Z,4.52
2023-10-09T09:14:05.787Z,5.58
2023-10-09T09:16:36.577Z,4.92
2023-10-09T09:19:18.659Z,4.15
2023-10-09T09:21:55.413Z,4.36
2023-10-09T09:24:32.334Z,4.14
2023-10-09T09:27:21.747Z,4.39
2023-10-09T09:29:55.544Z,4.63
2023-10-09T09:32:36.754Z,5.08
2023-10-09T09:35:06.890Z,4.27
2023-10-09T09:37:51.639Z,4.43
2023-10-09T09:40:33.336Z,4.41
2023-10-09T09:43:07.592Z,4.21
2023-10-09T09:45:38.145Z,4.91
2023-10-09T09:48:08.108Z,4.32
2023-10-09T09:50:44.497Z,4.32
2023-10-09T09:53:17.646Z,4.18
2023-10-09T09:55:57.524Z,4.92
2023-10-09T09:58:33.988Z,4.28
2023-10-09T10:01:17.229Z,4.64
2023-10-09T10:03:51.973Z,5.00
2023-10-09T10:06:22.493Z,5.26
2023-10-09T10:08:52.587Z,4.95
2023-10-09T10:11:46.594Z,4.65
2023-10-09T10:14:30.301Z,4.64
2023-10-09T10:17:19.867Z,6.87
2023-10-09T10:20:27.290Z,7.50
2023-10-09T10:23:20.641Z,7.36
2023-10-09T10:25:51.586Z,8.72
2023-10-09T10:28:39.427Z,10.01
2023-10-09T10:31:10.732Z,10.21
2023-10-09T10:34:11.730Z,7.59
2023-10-09T10:36:45.423Z,5.45
2023-10-09T10:39:22.247Z,4.77
2023-10-09T10:41:57.014Z,4.93
2023-10-09T10:44:43.115Z,4.97
2023-10-09T10:47:26.202Z,5.39
2023-10-09T10:50:00.384Z,5.27
2023-10-09T10:52:43.392Z,5.18
2023-10-09T10:55:19.320Z,5.72
2023-10-09T10:58:01.831Z,5.41
2023-10-09T11:00:48.301Z,5.15
2023-10-09T11:03:25.131Z,5.25
2023-10-09T11:05:53.661Z,4.93
2023-10-09T11:08:32.117Z,5.59
2023-10-09T11:11:16.607Z,5.52
2023-10-09T11:13:58.265Z,5.71
2023-10-09T11:16:49.437Z,5.82
2023-10-09T11:19:36.134Z,5.74
2023-10-09T11:22:21.983Z,5.96
2023-10-09T11:25:12.401Z,6.11
2023-10-09T11:27:51.272Z,6.01
2023-10-09T11:30:33.668Z,5.36
2023-10-09T11:33:15.852Z,6.13
2023-10-09T11:35:59.221Z,6.58
2023-10-09T11:38:27.257Z,6.63
2023-10-09T11:41:14.936Z,6.65
2023-10-09T11:43:58.580Z,7.33
2023-10-09T11:46:46.471Z,8.08
2023-10-09T11:49:27.853Z,7.77
2023-10-09T11:52:24.858Z,7.81
2023-10-09T11:54:52.836Z,8.32
2023-10-09T11:57:29.919Z,7.46
2023-10-09T11:59:58.174Z,7.15
2023-10-09T12:02:25.498Z,8.02
2023-10-09T12:04:56.859Z,7.48
2023-10-09T12:07:28.843Z,7.43
2023-10-09T12:09:58.324Z,7.87
2023-10-09T12:12:27.733Z,8.55
2023-10-09T12:14:55.901Z,8.25
2023-10-09T12:17:27.535Z,7.20
2023-10-09T12:19:57.467Z,7.61
2023-10-09T12:22:28.498Z,8.65
2023-10-09T12:24:57.573Z,7.56
2023-10-09T12:27:25.788Z,7.95
2023-10-09T12:29:53.952Z,7.30
2023-10-09T12:32:22.061Z,7.14
2023-10-09T12:34:51.968Z,7.42
2023-10-09T12:37:21.854Z,7.30
2023-10-09T12:39:56.818Z,7.88
2023-10-09T12:42:24.844Z,8.40
2023-10-09T12:44:52.871Z,7.61
2023-10-09T12:47:21.015Z,7.69
2023-10-09T12:49:50.333Z,7.07
2023-10-09T12:52:18.371Z,7.16
2023-10-09T12:54:48.014Z,7.62
2023-10-09T12:57:17.518Z,7.82
2023-10-09T12:59:46.605Z,6.70
2023-10-09T13:02:29.342Z,6.89
2023-10-09T13:04:58.396Z,7.50
2023-10-09T13:07:26.685Z,6.62
2023-10-09T13:10:08.825Z,6.85
2023-10-09T13:12:42.017Z,6.28
2023-10-09T13:15:11.337Z,6.03
2023-10-09T13:17:40.395Z,5.63
2023-10-09T13:20:14.020Z,5.79
2023-10-09T13:22:43.198Z,6.29
2023-10-09T13:25:31.343Z,6.25
2023-10-09T13:28:04.748Z,6.76
2023-10-09T13:30:40.411Z,6.39
2023-10-09T13:33:09.920Z,6.55
2023-10-09T13:35:42.100Z,5.60
2023-10-09T13:38:11.205Z,5.65
2023-10-09T13:40:39.479Z,6.31
2023-10-09T13:43:17.531Z,5.51
2023-10-09T13:45:50.854Z,5.44
2023-10-09T13:48:22.063Z,5.79
2023-10-09T13:50:50.299Z,6.16
2023-10-09T13:53:18.925Z,5.79
2023-10-09T13:55:48.268Z,5.92
2023-10-09T13:58:24.545Z,6.99
2023-10-09T14:00:54.569Z,6.12
2023-10-09T14:03:25.707Z,6.52
2023-10-09T14:05:58.241Z,6.40
2023-10-09T14:08:27.421Z,6.77
2023-10-09T14:10:55.774Z,6.43
2023-10-09T14:13:29.467Z,6.59
2023-10-09T14:16:00.973Z,6.78
2023-10-09T14:18:31.019Z,6.14
2023-10-09T14:21:05.637Z,6.72
2023-10-09T14:23:35.618Z,6.91
2023-10-09T14:26:03.866Z,6.87
2023-10-09T14:28:33.255Z,7.01
2023-10-09T14:31:02.189Z,14.28
2023-10-09T14:33:37.410Z,6.84
2023-10-09T14:36:06.933Z,6.24
2023-10-09T14:38:39.825Z,5.80
2023-10-09T14:41:12.754Z,6.59
2023-10-09T14:43:42.939Z,6.56
2023-10-09T14:46:15.904Z,5.74
2023-10-09T14:48:47.061Z,6.55
2023-10-09T14:51:15.448Z,6.28
2023-10-09T14:53:43.406Z,6.35
2023-10-09T14:58:47.943Z,6.36
2023-10-09T15:01:19.737Z,5.87
2023-10-09T15:03:49.019Z,7.07
2023-10-09T15:06:18.942Z,6.06
2023-10-09T15:08:47.753Z,6.63
2023-10-09T15:11:16.675Z,11.61
2023-10-09T15:13:46.043Z,10.48
2023-10-09T15:16:15.151Z,7.54
2023-10-09T15:18:43.198Z,6.26
2023-10-09T15:21:11.985Z,6.28
2023-10-09T15:23:40.016Z,5.72
2023-10-09T15:26:08.900Z,6.31
2023-10-09T15:28:37.120Z,6.25
2023-10-09T15:31:12.228Z,6.20
2023-10-09T15:33:40.980Z,6.37
2023-10-09T15:36:14.050Z,6.12
2023-10-09T15:38:42.524Z,6.14
2023-10-09T15:41:10.720Z,6.56
2023-10-09T15:43:39.850Z,6.03
2023-10-09T15:46:14.071Z,5.56
2023-10-09T15:48:42.110Z,5.89
2023-10-09T15:51:15.030Z,5.92
2023-10-09T15:53:44.334Z,6.31
2023-10-09T15:56:14.087Z,6.98
2023-10-09T15:58:44.111Z,6.72
2023-10-09T16:01:15.829Z,5.67
2023-10-09T16:03:45.061Z,5.92
2023-10-09T16:06:13.376Z,6.04
2023-10-09T16:08:42.969Z,5.96
2023-10-09T16:11:12.460Z,5.99
2023-10-09T16:13:42.263Z,5.58
2023-10-09T16:16:10.233Z,5.84
2023-10-09T16:18:40.377Z,6.53
2023-10-09T16:21:13.299Z,6.94
2023-10-09T16:23:43.312Z,6.03
2023-10-09T16:26:11.598Z,6.76
2023-10-09T16:28:41.307Z,9.23
2023-10-09T16:31:20.145Z,7.13
2023-10-09T16:34:08.674Z,6.39
2023-10-09T16:36:37.337Z,5.63
2023-10-09T16:39:06.087Z,5.95
2023-10-09T16:41:41.138Z,5.50
2023-10-09T16:44:11.397Z,7.70
2023-10-09T16:46:41.024Z,11.47
2023-10-09T16:49:12.619Z,7.06
2023-10-09T16:51:41.120Z,5.70
2023-10-09T16:54:15.948Z,5.11
2023-10-09T16:56:44.711Z,5.37
2023-10-09T16:59:15.426Z,5.48
2023-10-09T17:01:45.601Z,5.57
2023-10-09T17:04:18.147Z,5.58
2023-10-09T17:06:48.231Z,6.03
2023-10-09T17:09:16.522Z,6.09
2023-10-09T17:11:44.751Z,6.33
2023-10-09T17:14:17.109Z,6.88
2023-10-09T17:16:46.539Z,10.47
2023-10-09T17:19:16.190Z,15.38
2023-10-09T17:21:44.640Z,10.01
2023-10-09T17:24:13.651Z,7.02
2023-10-09T17:26:42.875Z,5.97
2023-10-09T17:29:12.184Z,6.04
2023-10-09T17:31:41.038Z,5.94
2023-10-09T17:34:09.333Z,5.90
2023-10-09T17:36:38.719Z,6.23
2023-10-09T17:39:08.063Z,6.79
2023-10-09T17:41:37.031Z,6.88
2023-10-09T17:44:06.155Z,6.51
2023-10-09T17:46:34.280Z,6.29
2023-10-09T17:49:02.654Z,6.36
2023-10-09T17:51:30.762Z,6.36
2023-10-09T17:54:00.247Z,6.10
2023-10-09T17:56:28.361Z,6.26
2023-10-09T17:58:56.400Z,6.20
2023-10-09T18:01:28.939Z,7.07
2023-10-09T18:06:28.453Z,11.45
2023-10-09T18:08:56.683Z,7.29
2023-10-09T18:11:26.031Z,5.60
2023-10-09T18:13:54.951Z,5.64
2023-10-09T18:16:23.738Z,5.65
2023-10-09T18:18:54.089Z,5.48
2023-10-09T18:21:22.153Z,7.79
2023-10-09T18:23:50.268Z,13.59
2023-10-09T18:26:19.790Z,8.36
2023-10-09T18:28:49.961Z,6.66
2023-10-09T18:31:18.802Z,6.29
2023-10-09T18:33:47.516Z,5.72
2023-10-09T18:36:18.865Z,5.15
2023-10-09T18:38:52.030Z,5.48
2023-10-09T18:41:22.985Z,5.43
2023-10-09T18:43:55.578Z,5.52
2023-10-09T18:46:23.978Z,5.34
2023-10-09T18:48:52.887Z,5.55
2023-10-09T18:51:20.961Z,6.22
2023-10-09T18:53:49.265Z,10.38
2023-10-09T18:56:21.092Z,7.23
2023-10-09T18:58:51.180Z,8.25
2023-10-09T19:01:20.731Z,7.41
2023-10-09T19:03:50.547Z,5.87
2023-10-09T19:06:19.661Z,5.66
2023-10-09T19:08:49.397Z,5.81
2023-10-09T19:11:24.486Z,5.75
2023-10-09T19:13:53.199Z,7.05
2023-10-09T19:16:23.256Z,6.20
2023-10-09T19:18:51.403Z,5.57
2023-10-09T19:21:19.942Z,5.61
2023-10-09T19:23:48.314Z,5.46
2023-10-09T19:26:18.490Z,5.20
2023-10-09T19:28:49.023Z,5.06
2023-10-09T19:31:18.120Z,8.04
2023-10-09T19:33:47.908Z,6.70
2023-10-09T19:36:16.291Z,5.14
2023-10-09T19:38:51.196Z,5.16
2023-10-09T19:41:20.959Z,4.93
2023-10-09T19:43:49.405Z,4.98
2023-10-09T19:46:18.304Z,4.93
2023-10-09T19:48:50.644Z,5.13
2023-10-09T19:51:21.393Z,5.24
2023-10-09T19:53:49.267Z,5.59
2023-10-09T19:56:20.829Z,8.19
2023-10-09T19:58:48.818Z,11.79
2023-10-09T20:01:17.121Z,9.29
2023-10-09T20:03:45.247Z,5.66
2023-10-09T20:06:16.580Z,5.14
2023-10-09T20:08:44.647Z,5.05
2023-10-09T20:11:14.020Z,5.35
2023-10-09T20:13:44.094Z,5.60
2023-10-09T20:16:12.792Z,5.39
2023-10-09T20:18:43.933Z,6.92
2023-10-09T20:21:15.334Z,6.45
2023-10-09T20:23:44.231Z,5.13
2023-10-09T20:26:16.300Z,5.24
2023-10-09T20:28:46.589Z,5.09
2023-10-09T20:31:15.765Z,5.17
2023-10-09T20:33:44.729Z,5.02
2023-10-09T20:36:19.908Z,6.21
2023-10-09T20:38:49.799Z,5.38
2023-10-09T20:41:19.800Z,7.38
2023-10-09T20:43:48.474Z,6.13
2023-10-09T20:46:17.531Z,4.82
2023-10-09T20:48:46.947Z,4.89
2023-10-09T20:51:17.960Z,5.59
2023-10-09T20:53:47.244Z,5.29
2023-10-09T20:56:15.488Z,5.37
2023-10-09T20:58:44.366Z,5.34
2023-10-09T21:01:17.385Z,5.57
2023-10-09T21:03:47.776Z,5.24
2023-10-09T21:06:18.396Z,5.62
2023-10-09T21:08:46.643Z,5.57
2023-10-09T21:11:14.716Z,5.42
2023-10-09T21:13:46.167Z,5.52
2023-10-09T21:16:15.424Z,5.57
2023-10-09T21:18:45.127Z,5.13
2023-10-09T21:21:14.696Z,5.39
2023-10-09T21:23:44.887Z,5.45
2023-10-09T21:26:21.517Z,6.07
2023-10-09T21:28:50.423Z,7.04
2023-10-09T21:31:20.982Z,8.80
2023-10-09T21:33:50.651Z,8.04
2023-10-09T21:36:19.174Z,6.73
2023-10-09T21:38:48.560Z,6.99
2023-10-09T21:41:19.309Z,7.00
2023-10-09T21:43:48.209Z,5.86
2023-10-09T21:46:16.856Z,5.37
2023-10-09T21:48:45.099Z,5.27
2023-10-09T21:51:17.375Z,5.27
2023-10-09T21:53:45.825Z,5.35
2023-10-09T21:56:16.764Z,5.50
2023-10-09T21:58:44.738Z,5.48
2023-10-09T22:01:13.895Z,5.69
2023-10-09T22:03:42.712Z,5.38
2023-10-09T22:06:11.922Z,5.57
2023-10-09T22:08:40.062Z,5.88
2023-10-09T22:11:08.818Z,5.86
2023-10-09T22:13:38.377Z,5.98
2023-10-09T22:16:06.723Z,6.12
2023-10-09T22:18:41.183Z,10.22
2023-10-09T22:21:12.309Z,6.28
2023-10-09T22:23:46.846Z,5.37
2023-10-09T22:26:16.078Z,5.74
2023-10-09T22:28:47.973Z,8.87
2023-10-09T22:31:17.781Z,7.55
2023-10-09T22:33:51.209Z,6.00
2023-10-09T22:36:28.448Z,5.47
2023-10-09T22:39:06.601Z,5.50
2023-10-09T22:41:35.786Z,5.30
2023-10-09T22:44:11.753Z,5.53
2023-10-09T22:46:41.753Z,5.33
2023-10-09T22:49:15.789Z,5.48
2023-10-09T22:51:51.263Z,5.13
2023-10-09T22:54:24.427Z,5.57
2023-10-09T22:56:54.020Z,5.45
2023-10-09T22:59:28.208Z,5.67
2023-10-09T23:02:00.268Z,6.03
2023-10-09T23:04:38.196Z,6.19
2023-10-09T23:07:15.638Z,5.79
2023-10-09T23:09:51.760Z,6.03
2023-10-09T23:12:26.296Z,6.24
2023-10-09T23:14:57.055Z,5.94
2023-10-09T23:17:45.096Z,6.10
2023-10-09T23:20:20.764Z,13.52
2023-10-09T23:22:51.049Z,11.97
2023-10-09T23:25:31.334Z,7.62
2023-10-09T23:28:13.404Z,5.74
2023-10-09T23:30:44.394Z,5.99
2023-10-09T23:33:21.670Z,5.59
2023-10-09T23:35:56.571Z,5.63
2023-10-09T23:38:33.729Z,5.61
2023-10-09T23:41:05.115Z,5.96
2023-10-09T23:43:34.020Z,5.27
2023-10-09T23:46:09.105Z,6.01
2023-10-09T23:48:39.579Z,5.69
2023-10-09T23:51:13.377Z,6.01
2023-10-09T23:53:47.633Z,5.66
2023-10-09T23:56:35.920Z,6.03
2023-10-09T23:59:12.177Z,5.85
